GAP2968 RPME-RPLL
Flight info
| Callsign | GAP2968 |
|---|---|
| Flight time | N/A |
| Altitude | 38000 |
| Route | BAMP1B JARED W14 MCT W11 CONDE CONDE3R |
| Aircraft | A320/M-SDE3FGHIRWY/LB1 |
Departure
| Time | 2026-04-24 15:27 |
|---|---|
| Airport | Bancasi Airport (RPME) |
Arrival
| Time | N/A |
|---|---|
| Airport | Ninoy Aquino International Airport (RPLL) |
| Time | Latitude | Longitude | Altitude | Speed | Heading |
|---|---|---|---|---|---|
| 2026-04-24 15:13 | 8.94868 | 125.48159 | 52 ft | 0 kts | 236° |
| 2026-04-24 15:21 | 8.94868 | 125.48157 | 52 ft | 0 kts | 260° |
| 2026-04-24 15:21 | 8.94874 | 125.48154 | 51 ft | 1 kts | 17° |
| 2026-04-24 15:21 | 8.94884 | 125.48177 | 52 ft | 4 kts | 71° |
| 2026-04-24 15:22 | 8.94892 | 125.48210 | 52 ft | 5 kts | 84° |
| 2026-04-24 15:22 | 8.94892 | 125.48247 | 52 ft | 5 kts | 83° |
| 2026-04-24 15:22 | 8.94904 | 125.48288 | 52 ft | 6 kts | 71° |
| 2026-04-24 15:23 | 8.94900 | 125.48391 | 53 ft | 8 kts | 117° |
| 2026-04-24 15:23 | 8.94835 | 125.48526 | 55 ft | 11 kts | 116° |
| 2026-04-24 15:23 | 8.94804 | 125.48589 | 55 ft | 7 kts | 117° |
| 2026-04-24 15:24 | 8.94783 | 125.48640 | 56 ft | 4 kts | 287° |
| 2026-04-24 15:25 | 8.94790 | 125.48614 | 55 ft | 0 kts | 298° |
| 2026-04-24 15:25 | 8.94791 | 125.48613 | 55 ft | 2 kts | 298° |
| 2026-04-24 15:26 | 8.95706 | 125.46740 | 430 ft | 156 kts | 296° |
| 2026-04-24 15:27 | 8.97489 | 125.43992 | 2143 ft | 167 kts | 317° |
| 2026-04-24 15:27 | 9.00314 | 125.41125 | 3315 ft | 218 kts | 316° |
| 2026-04-24 15:28 | 9.05343 | 125.35905 | 5444 ft | 289 kts | 315° |
| 2026-04-24 15:29 | 9.08142 | 125.32978 | 7169 ft | 295 kts | 315° |
| 2026-04-24 15:30 | 9.12498 | 125.28442 | 9685 ft | 304 kts | 315° |
| 2026-04-24 15:31 | 9.18619 | 125.22069 | 12485 ft | 328 kts | 315° |
| 2026-04-24 15:32 | 9.25059 | 125.15327 | 15336 ft | 341 kts | 315° |
| 2026-04-24 15:33 | 9.31873 | 125.08188 | 17674 ft | 362 kts | 315° |
| 2026-04-24 15:33 | 9.37187 | 125.02611 | 19430 ft | 372 kts | 315° |
| 2026-04-24 15:34 | 9.40808 | 124.98807 | 20527 ft | 378 kts | 316° |
| 2026-04-24 15:35 | 9.43862 | 124.95602 | 21408 ft | 383 kts | 316° |